createdAt,value
2019-05-10T00:00:55.244Z,4.27
2019-05-10T00:03:41.926Z,4.40
2019-05-10T00:06:28.636Z,4.73
2019-05-10T00:08:56.408Z,4.47
2019-05-10T00:11:43.137Z,4.57
2019-05-10T00:14:40.228Z,4.50
2019-05-10T00:17:20.385Z,4.27
2019-05-10T00:19:49.141Z,4.43
2019-05-10T00:22:17.822Z,4.80
2019-05-10T00:25:02.288Z,4.20
2019-05-10T00:27:16.661Z,4.20
2019-05-10T00:29:45.206Z,4.53
2019-05-10T00:32:13.793Z,4.27
2019-05-10T00:34:42.419Z,4.83
2019-05-10T00:37:10.986Z,4.33
2019-05-10T00:39:39.545Z,4.83
2019-05-10T00:42:08.106Z,4.70
2019-05-10T00:44:36.647Z,5.00
2019-05-10T00:47:05.221Z,4.67
2019-05-10T00:49:33.835Z,4.20
2019-05-10T00:52:02.353Z,4.03
2019-05-10T00:54:30.906Z,4.67
2019-05-10T00:56:59.465Z,4.70
2019-05-10T00:59:28.042Z,5.00
2019-05-10T01:01:56.589Z,4.20
2019-05-10T01:04:25.137Z,4.33
2019-05-10T01:06:56.333Z,4.37
2019-05-10T01:09:24.022Z,4.10
2019-05-10T01:11:52.616Z,4.53
2019-05-10T01:14:21.170Z,4.63
2019-05-10T01:16:49.727Z,4.23
2019-05-10T01:19:18.272Z,4.30
2019-05-10T01:21:46.853Z,4.33
2019-05-10T01:24:15.478Z,4.17
2019-05-10T01:26:47.207Z,4.47
2019-05-10T01:29:15.755Z,4.50
2019-05-10T01:31:44.429Z,4.23
2019-05-10T01:34:12.979Z,4.53
2019-05-10T01:36:41.548Z,4.17
2019-05-10T01:39:10.118Z,4.40
2019-05-10T01:41:38.678Z,3.80
2019-05-10T01:44:07.232Z,3.87
2019-05-10T01:46:35.778Z,4.20
2019-05-10T01:49:04.343Z,4.50
2019-05-10T01:51:32.922Z,4.43
2019-05-10T01:54:01.463Z,4.70
2019-05-10T01:56:29.980Z,4.83
2019-05-10T01:58:58.598Z,4.10
2019-05-10T02:01:27.142Z,5.07
2019-05-10T02:03:55.691Z,4.70
2019-05-10T02:06:24.237Z,4.80
2019-05-10T02:08:52.893Z,4.97
2019-05-10T02:11:21.415Z,5.13
2019-05-10T02:13:49.893Z,4.90
2019-05-10T02:16:18.471Z,4.90
2019-05-10T02:18:47.154Z,4.90
2019-05-10T02:21:15.708Z,5.27
2019-05-10T02:23:44.342Z,4.80
2019-05-10T02:26:12.928Z,5.27
2019-05-10T02:28:41.479Z,4.87
2019-05-10T02:31:10.055Z,4.70
2019-05-10T02:33:38.601Z,4.73
2019-05-10T02:36:07.156Z,4.67
2019-05-10T02:38:35.705Z,4.67
2019-05-10T02:41:04.342Z,4.60
2019-05-10T02:43:32.942Z,4.80
2019-05-10T02:46:01.516Z,4.93
2019-05-10T02:48:30.077Z,4.73
2019-05-10T02:50:58.768Z,5.27
2019-05-10T02:53:27.432Z,5.03
2019-05-10T02:55:56.887Z,4.43
2019-05-10T02:58:25.585Z,4.63
2019-05-10T03:00:54.790Z,4.97
2019-05-10T03:03:24.472Z,5.30
2019-05-10T03:05:53.459Z,5.33
2019-05-10T03:08:23.184Z,4.70
2019-05-10T03:10:56.329Z,4.23
2019-05-10T03:13:28.147Z,4.53
2019-05-10T03:15:58.518Z,4.70
2019-05-10T03:18:27.867Z,5.40
2019-05-10T03:20:58.244Z,4.97
2019-05-10T03:23:26.883Z,4.77
2019-05-10T03:25:55.877Z,5.13
2019-05-10T03:28:24.472Z,5.00
2019-05-10T03:30:53.015Z,4.80
2019-05-10T03:33:21.594Z,5.07
2019-05-10T03:35:50.218Z,4.70
2019-05-10T03:38:19.123Z,4.40
2019-05-10T03:40:47.662Z,5.10
2019-05-10T03:43:16.281Z,4.80
2019-05-10T03:45:44.843Z,4.90
2019-05-10T03:48:13.485Z,4.90
2019-05-10T03:50:42.049Z,5.40
2019-05-10T03:53:10.702Z,4.90
2019-05-10T03:55:39.261Z,5.17
2019-05-10T03:58:07.851Z,5.80
2019-05-10T04:00:36.396Z,5.63
2019-05-10T04:03:04.963Z,5.67
2019-05-10T04:05:33.593Z,4.93
2019-05-10T04:08:02.124Z,4.67
2019-05-10T04:10:30.720Z,5.07
2019-05-10T04:12:59.253Z,5.13
2019-05-10T04:15:27.876Z,5.23
2019-05-10T04:17:56.593Z,5.87
2019-05-10T04:20:25.191Z,5.33
2019-05-10T04:22:53.805Z,5.40
2019-05-10T04:25:22.422Z,5.28
2019-05-10T04:27:51.008Z,5.57
2019-05-10T04:30:20.606Z,5.20
2019-05-10T04:32:49.210Z,5.20
2019-05-10T04:35:17.787Z,5.43
2019-05-10T04:37:46.390Z,5.27
2019-05-10T04:40:15.059Z,5.03
2019-05-10T04:42:43.627Z,5.10
2019-05-10T04:45:12.170Z,4.67
2019-05-10T04:47:40.829Z,5.00
2019-05-10T04:50:09.456Z,5.07
2019-05-10T04:52:38.053Z,4.97
2019-05-10T04:55:06.654Z,4.90
2019-05-10T04:57:49.086Z,4.67
2019-05-10T05:00:07.499Z,4.97
2019-05-10T05:02:36.081Z,5.10
2019-05-10T05:05:04.847Z,5.13
2019-05-10T05:07:33.413Z,5.57
2019-05-10T05:10:02.009Z,5.73
2019-05-10T05:12:30.590Z,5.47
2019-05-10T05:14:59.228Z,5.50
2019-05-10T05:17:27.791Z,5.77
2019-05-10T05:19:56.352Z,5.87
2019-05-10T05:22:24.942Z,5.70
2019-05-10T05:24:55.098Z,6.78
2019-05-10T05:27:23.724Z,6.13
2019-05-10T05:29:52.333Z,5.50
2019-05-10T05:32:20.897Z,5.67
2019-05-10T05:34:49.456Z,6.17
2019-05-10T05:37:18.012Z,5.50
2019-05-10T05:39:46.650Z,6.43
2019-05-10T05:42:15.226Z,6.23
2019-05-10T05:44:43.777Z,6.17
2019-05-10T05:47:12.412Z,6.43
2019-05-10T05:49:41.083Z,6.80
2019-05-10T05:52:09.863Z,6.40
2019-05-10T05:54:38.712Z,6.70
2019-05-10T05:57:07.401Z,6.70
2019-05-10T05:59:35.989Z,6.53
2019-05-10T06:02:07.599Z,6.40
2019-05-10T06:04:34.934Z,7.50
2019-05-10T06:07:03.524Z,6.37
2019-05-10T06:09:37.671Z,6.60
2019-05-10T06:12:02.404Z,6.67
2019-05-10T06:14:30.988Z,6.87
2019-05-10T06:16:59.533Z,5.80
2019-05-10T06:19:29.655Z,7.10
2019-05-10T06:22:04.673Z,7.47
2019-05-10T06:24:28.682Z,6.20
2019-05-10T06:26:58.306Z,7.10
2019-05-10T06:29:27.545Z,6.73
2019-05-10T06:31:58.818Z,6.93
2019-05-10T06:34:26.425Z,6.83
2019-05-10T06:36:55.011Z,7.17
2019-05-10T06:39:23.648Z,7.27
2019-05-10T06:41:56.340Z,6.87
2019-05-10T06:44:25.084Z,7.53
2019-05-10T06:46:52.718Z,7.70
2019-05-10T06:49:21.263Z,7.70
2019-05-10T06:51:50.982Z,7.73
2019-05-10T06:54:19.690Z,8.27
2019-05-10T06:56:48.266Z,8.33
2019-05-10T06:59:19.449Z,8.30
2019-05-10T07:01:51.847Z,8.43
2019-05-10T07:04:17.385Z,7.90
2019-05-10T07:06:45.887Z,8.13
2019-05-10T07:09:14.413Z,8.47
2019-05-10T07:11:43.818Z,9.10
2019-05-10T07:14:12.537Z,8.37
2019-05-10T07:16:41.024Z,8.90
2019-05-10T07:19:09.613Z,8.53
2019-05-10T07:21:38.959Z,8.37
2019-05-10T07:24:08.316Z,7.83
2019-05-10T07:26:36.831Z,8.03
2019-05-10T07:29:05.421Z,8.07
2019-05-10T07:31:33.916Z,7.63
2019-05-10T07:34:02.417Z,7.00
2019-05-10T07:36:31.123Z,7.20
2019-05-10T07:39:02.845Z,6.33
2019-05-10T07:41:30.089Z,7.10
2019-05-10T07:44:00.564Z,6.83
2019-05-10T07:46:28.784Z,7.13
2019-05-10T07:48:57.333Z,6.33
2019-05-10T07:51:28.670Z,6.73
2019-05-10T07:53:56.997Z,6.60
2019-05-10T07:56:26.459Z,6.60
2019-05-10T07:58:54.998Z,6.73
2019-05-10T08:01:32.185Z,6.27
2019-05-10T08:03:53.822Z,6.20
2019-05-10T08:06:22.414Z,6.10
2019-05-10T08:08:55.526Z,6.47
2019-05-10T08:11:21.237Z,6.33
2019-05-10T08:13:49.775Z,7.03
2019-05-10T08:16:22.785Z,7.10
2019-05-10T08:18:49.766Z,7.13
2019-05-10T08:21:22.212Z,7.83
2019-05-10T08:23:48.831Z,7.07
2019-05-10T08:26:21.950Z,7.40
2019-05-10T08:28:47.695Z,7.40
2019-05-10T08:31:16.281Z,7.73
2019-05-10T08:33:56.260Z,7.40
2019-05-10T08:36:15.119Z,8.27
2019-05-10T08:38:47.264Z,7.77
2019-05-10T08:41:18.108Z,7.73
2019-05-10T08:43:44.277Z,7.70
2019-05-10T08:46:12.838Z,6.50
2019-05-10T08:48:46.698Z,7.53
2019-05-10T08:51:12.602Z,6.50
2019-05-10T08:53:42.090Z,6.20
2019-05-10T08:56:13.846Z,6.47
2019-05-10T08:58:42.257Z,6.07
2019-05-10T09:01:23.897Z,6.83
2019-05-10T09:03:42.070Z,7.47
2019-05-10T09:06:15.903Z,6.70
2019-05-10T09:08:43.187Z,7.63
2019-05-10T09:11:11.930Z,8.10
2019-05-10T09:13:42.455Z,7.40
2019-05-10T09:16:13.018Z,7.57
2019-05-10T09:18:46.132Z,7.77
2019-05-10T09:21:14.207Z,7.30
2019-05-10T09:23:42.699Z,7.07
2019-05-10T09:26:16.207Z,6.93
2019-05-10T09:28:42.233Z,6.90
2019-05-10T09:31:22.662Z,7.27
2019-05-10T09:33:49.311Z,7.67
2019-05-10T09:36:13.128Z,7.70
2019-05-10T09:38:44.206Z,7.53
2019-05-10T09:41:13.010Z,7.50
2019-05-10T09:43:48.339Z,7.00
2019-05-10T09:46:14.125Z,6.33
2019-05-10T09:48:45.075Z,5.80
2019-05-10T09:51:19.120Z,5.90
2019-05-10T09:53:48.684Z,4.90
2019-05-10T09:56:17.866Z,4.77
2019-05-10T09:58:48.442Z,5.50
2019-05-10T10:01:21.413Z,4.23
2019-05-10T10:03:48.504Z,5.13
2019-05-10T10:06:17.605Z,5.47
2019-05-10T10:08:51.303Z,5.37
2019-05-10T10:11:18.745Z,6.27
2019-05-10T10:13:50.282Z,6.40
2019-05-10T10:16:19.335Z,6.77
2019-05-10T10:18:48.487Z,5.60
2019-05-10T10:21:18.948Z,6.63
2019-05-10T10:23:48.392Z,6.00
2019-05-10T10:26:21.173Z,5.20
2019-05-10T10:28:49.696Z,5.37
2019-05-10T10:31:28.715Z,5.27
2019-05-10T10:33:58.014Z,5.23
2019-05-10T10:36:20.685Z,4.47
2019-05-10T10:38:49.956Z,3.90
2019-05-10T10:41:25.934Z,5.30
2019-05-10T10:43:49.986Z,4.10
2019-05-10T10:46:19.928Z,3.87
2019-05-10T10:48:51.297Z,3.30
2019-05-10T10:51:19.927Z,3.30
2019-05-10T10:53:49.006Z,3.10
2019-05-10T10:56:18.107Z,3.23
2019-05-10T10:58:49.621Z,4.03
2019-05-10T11:01:24.994Z,4.20
2019-05-10T11:03:49.155Z,4.50
2019-05-10T11:06:18.402Z,4.13
2019-05-10T11:08:47.464Z,3.70
2019-05-10T11:11:16.548Z,4.27
2019-05-10T11:13:51.466Z,4.37
2019-05-10T11:16:16.293Z,4.10
2019-05-10T11:18:45.425Z,4.43
2019-05-10T11:21:14.477Z,4.73
2019-05-10T11:23:43.632Z,4.07
2019-05-10T11:26:12.734Z,4.60
2019-05-10T11:28:44.198Z,4.07
2019-05-10T11:31:12.580Z,4.53
2019-05-10T11:33:41.867Z,3.80
2019-05-10T11:36:12.500Z,3.90
2019-05-10T11:38:42.143Z,4.50
2019-05-10T11:41:13.596Z,4.10
2019-05-10T11:43:42.147Z,4.27
2019-05-10T11:46:11.739Z,4.53
2019-05-10T11:48:42.210Z,3.43
2019-05-10T11:51:17.173Z,4.63
2019-05-10T11:53:42.407Z,4.77
2019-05-10T11:58:46.010Z,3.70
2019-05-10T12:01:17.571Z,3.60
2019-05-10T12:03:43.728Z,2.93
2019-05-10T12:06:12.813Z,3.20
2019-05-10T12:08:42.140Z,3.00
2019-05-10T12:11:27.497Z,2.67
2019-05-10T12:13:42.034Z,3.77
2019-05-10T12:18:46.712Z,5.20
2019-05-10T12:21:12.678Z,4.87
2019-05-10T12:23:50.441Z,5.17
2019-05-10T12:26:27.769Z,4.70
2019-05-10T12:26:30.550Z,4.30
2019-05-10T12:28:43.304Z,3.73
2019-05-10T12:31:15.930Z,3.50
2019-05-10T12:33:45.468Z,3.33
2019-05-10T12:36:23.780Z,3.27
2019-05-10T12:38:44.647Z,2.90
2019-05-10T12:41:13.698Z,3.37
2019-05-10T12:43:43.669Z,2.50
2019-05-10T12:46:12.922Z,2.67
2019-05-10T12:48:42.652Z,2.40
2019-05-10T12:51:15.739Z,2.57
2019-05-10T12:53:47.750Z,3.10
2019-05-10T12:56:13.493Z,2.63
2019-05-10T12:58:42.631Z,2.30
2019-05-10T13:01:11.682Z,1.90
2019-05-10T13:03:40.740Z,2.30
2019-05-10T13:06:09.806Z,2.17
2019-05-10T13:08:38.891Z,2.00
2019-05-10T13:11:07.943Z,2.57
2019-05-10T13:13:37.030Z,2.30
2019-05-10T13:16:09.608Z,2.30
2019-05-10T13:18:52.721Z,2.10
2019-05-10T13:21:13.194Z,1.90
2019-05-10T13:23:38.468Z,2.80
2019-05-10T13:26:07.558Z,2.40
2019-05-10T13:28:36.631Z,2.70
2019-05-10T13:31:07.136Z,2.50
2019-05-10T13:33:41.911Z,2.90
2019-05-10T13:36:07.190Z,2.90
2019-05-10T13:38:37.055Z,2.60
2019-05-10T13:41:26.661Z,3.10
2019-05-10T13:43:58.811Z,2.67
2019-05-10T13:46:26.581Z,2.70
2019-05-10T13:48:55.720Z,2.50
2019-05-10T13:51:24.803Z,2.50
2019-05-10T13:53:58.811Z,2.20
2019-05-10T13:56:24.699Z,2.70
2019-05-10T13:58:53.845Z,2.70
2019-05-10T14:01:22.915Z,2.40
2019-05-10T14:03:59.883Z,2.80
2019-05-10T14:06:22.774Z,2.60
2019-05-10T14:08:51.828Z,2.73
2019-05-10T14:11:20.930Z,2.37
2019-05-10T14:13:49.995Z,2.80
2019-05-10T14:16:22.004Z,3.43
2019-05-10T14:18:49.874Z,2.60
2019-05-10T14:21:18.939Z,2.53
2019-05-10T14:23:48.028Z,2.53
2019-05-10T14:26:18.329Z,2.23
2019-05-10T14:28:53.082Z,2.10
2019-05-10T14:31:18.441Z,1.97
2019-05-10T14:34:04.497Z,1.80
2019-05-10T14:36:18.311Z,2.00
2019-05-10T14:39:07.163Z,1.90
2019-05-10T14:41:39.646Z,2.00
2019-05-10T14:44:07.032Z,2.10
2019-05-10T14:46:36.178Z,2.00
2019-05-10T14:49:09.818Z,1.93
2019-05-10T14:51:49.402Z,2.03
2019-05-10T14:54:08.911Z,1.80
2019-05-10T14:56:37.660Z,2.40
2019-05-10T14:59:06.825Z,2.67
2019-05-10T15:01:36.764Z,2.73
2019-05-10T15:04:06.661Z,2.60
2019-05-10T15:06:36.865Z,2.40
2019-05-10T15:09:20.260Z,2.67
2019-05-10T15:11:39.063Z,2.57
2019-05-10T15:14:08.164Z,2.00
2019-05-10T15:16:37.465Z,1.87
2019-05-10T15:19:06.550Z,1.90
2019-05-10T15:21:36.040Z,2.00
2019-05-10T15:24:05.335Z,2.03
2019-05-10T15:26:37.442Z,1.80
2019-05-10T15:29:05.108Z,2.03
2019-05-10T15:31:34.243Z,2.30
2019-05-10T15:34:05.155Z,1.53
2019-05-10T15:36:34.146Z,1.90
2019-05-10T15:39:03.541Z,2.10
2019-05-10T15:41:32.654Z,1.77
2019-05-10T15:44:01.803Z,1.87
2019-05-10T15:46:39.863Z,1.50
2019-05-10T15:49:01.587Z,1.77
2019-05-10T15:51:36.288Z,1.73
2019-05-10T15:54:04.783Z,1.80
2019-05-10T15:56:35.749Z,1.50
2019-05-10T15:59:03.057Z,1.50
2019-05-10T16:01:32.125Z,1.40
2019-05-10T16:04:01.148Z,2.43
2019-05-10T16:06:32.485Z,2.30
2019-05-10T16:09:03.573Z,3.13
2019-05-10T16:11:31.728Z,2.90
2019-05-10T16:14:01.699Z,3.27
2019-05-10T16:16:37.237Z,3.17
2019-05-10T16:19:01.665Z,3.07
2019-05-10T16:21:30.739Z,4.40
2019-05-10T16:23:59.753Z,4.13
2019-05-10T16:26:28.809Z,4.03
2019-05-10T16:29:02.005Z,4.07
2019-05-10T16:31:28.636Z,9.43
2019-05-10T16:33:57.709Z,9.80
2019-05-10T16:36:28.332Z,16.13
2019-05-10T16:39:01.136Z,15.20
2019-05-10T16:41:28.351Z,14.20
2019-05-10T16:43:58.435Z,5.63
2019-05-10T16:46:28.198Z,6.60
2019-05-10T16:48:58.317Z,6.60
2019-05-10T16:51:28.007Z,7.53
2019-05-10T16:53:58.030Z,5.87
2019-05-10T16:56:27.152Z,6.90
2019-05-10T16:58:59.330Z,6.70
2019-05-10T17:01:27.862Z,6.87
2019-05-10T17:04:00.377Z,6.13
2019-05-10T17:06:28.502Z,6.60
2019-05-10T17:08:57.923Z,6.77
2019-05-10T17:11:27.019Z,6.13
2019-05-10T17:13:59.218Z,7.83
2019-05-10T17:16:28.469Z,6.63
2019-05-10T17:18:57.525Z,6.37
2019-05-10T17:21:26.645Z,6.70
2019-05-10T17:23:55.688Z,5.50
2019-05-10T17:26:24.757Z,5.90
2019-05-10T17:28:53.793Z,6.40
2019-05-10T17:31:22.893Z,6.27
2019-05-10T17:33:51.947Z,6.50
2019-05-10T17:36:21.560Z,6.20
2019-05-10T17:38:53.511Z,5.90
2019-05-10T17:41:25.016Z,6.00
2019-05-10T17:43:52.526Z,5.80
2019-05-10T17:46:21.601Z,5.93
2019-05-10T17:48:50.714Z,5.30
2019-05-10T17:51:19.781Z,6.10
2019-05-10T17:53:55.111Z,5.70
2019-05-10T17:56:19.588Z,5.90
2019-05-10T17:58:48.559Z,5.97
2019-05-10T18:01:18.425Z,5.90
2019-05-10T18:03:47.507Z,6.50
2019-05-10T18:06:24.183Z,5.60
2019-05-10T18:08:47.198Z,6.40
2019-05-10T18:11:16.324Z,6.47
2019-05-10T18:13:45.356Z,6.87
2019-05-10T18:16:14.458Z,6.67
2019-05-10T18:18:47.187Z,6.77
2019-05-10T18:21:15.880Z,6.73
2019-05-10T18:23:45.128Z,6.50
2019-05-10T18:26:14.204Z,7.30
2019-05-10T18:28:44.781Z,7.00
2019-05-10T18:31:13.881Z,7.27
2019-05-10T18:33:44.723Z,7.10
2019-05-10T18:36:13.742Z,7.07
2019-05-10T18:38:42.812Z,6.83
2019-05-10T18:41:11.949Z,7.63
2019-05-10T18:43:42.825Z,7.00
2019-05-10T18:46:11.839Z,6.83
2019-05-10T18:48:40.945Z,6.90
2019-05-10T18:51:10.014Z,7.77
2019-05-10T18:53:39.008Z,7.23
2019-05-10T18:56:08.098Z,7.10
2019-05-10T18:58:37.155Z,7.37
2019-05-10T19:01:06.203Z,7.60
2019-05-10T19:03:35.520Z,7.40
2019-05-10T19:06:11.139Z,8.17
2019-05-10T19:08:35.474Z,8.23
2019-05-10T19:11:05.014Z,7.63
2019-05-10T19:13:45.952Z,8.60
2019-05-10T19:16:05.318Z,9.07
2019-05-10T19:18:34.395Z,7.83
2019-05-10T19:21:03.503Z,8.40
2019-05-10T19:23:32.593Z,8.53
2019-05-10T19:26:01.653Z,8.47
2019-05-10T19:28:30.753Z,9.10
2019-05-10T19:31:00.559Z,8.63
2019-05-10T19:33:36.150Z,8.23
2019-05-10T19:36:00.489Z,7.83
2019-05-10T19:38:29.465Z,8.03
2019-05-10T19:40:58.571Z,8.27
2019-05-10T19:43:27.825Z,7.93
2019-05-10T19:45:58.093Z,8.03
2019-05-10T19:48:29.395Z,7.67
2019-05-10T19:51:02.984Z,7.30
2019-05-10T19:53:29.372Z,8.03
2019-05-10T19:55:59.240Z,7.60
2019-05-10T19:58:32.436Z,8.20
2019-05-10T20:00:59.254Z,8.27
2019-05-10T20:03:28.498Z,8.40
2019-05-10T20:05:57.503Z,7.43
2019-05-10T20:08:26.642Z,7.30
2019-05-10T20:10:55.636Z,7.30
2019-05-10T20:13:24.757Z,7.63
2019-05-10T20:15:53.843Z,8.07
2019-05-10T20:18:22.896Z,9.08
2019-05-10T20:20:51.959Z,7.97
2019-05-10T20:23:21.054Z,8.27
2019-05-10T20:25:49.943Z,8.57
2019-05-10T20:28:19.037Z,8.83
2019-05-10T20:30:48.101Z,9.03
2019-05-10T20:33:17.219Z,9.07
2019-05-10T20:35:46.285Z,9.00
2019-05-10T20:38:15.329Z,9.67
2019-05-10T20:40:44.402Z,8.83
2019-05-10T20:43:13.526Z,9.67
2019-05-10T20:45:42.576Z,8.73
2019-05-10T20:48:11.674Z,9.10
2019-05-10T20:50:40.762Z,8.97
2019-05-10T20:53:09.855Z,8.77
2019-05-10T20:55:38.930Z,8.80
2019-05-10T20:58:08.106Z,8.77
2019-05-10T21:00:37.185Z,8.40
2019-05-10T21:03:06.293Z,9.73
2019-05-10T21:05:35.325Z,9.03
2019-05-10T21:08:16.083Z,8.90
2019-05-10T21:10:35.210Z,9.20
2019-05-10T21:13:04.259Z,8.70
2019-05-10T21:15:33.369Z,8.03
2019-05-10T21:18:02.407Z,8.30
2019-05-10T21:20:31.495Z,8.60
2019-05-10T21:23:00.587Z,8.67
2019-05-10T21:25:29.631Z,8.80
2019-05-10T21:27:58.731Z,8.37
2019-05-10T21:30:27.847Z,8.70
2019-05-10T21:32:56.897Z,8.00
2019-05-10T21:35:28.373Z,7.97
2019-05-10T21:37:57.448Z,8.17
2019-05-10T21:40:26.525Z,8.80
2019-05-10T21:42:55.832Z,9.10
2019-05-10T21:45:24.895Z,8.13
2019-05-10T21:47:53.973Z,8.77
2019-05-10T21:50:24.363Z,9.43
2019-05-10T21:52:53.512Z,8.97
2019-05-10T21:55:22.623Z,9.57
2019-05-10T21:57:51.673Z,9.90
2019-05-10T22:00:25.113Z,8.87
2019-05-10T22:02:54.290Z,8.90
2019-05-10T22:05:22.819Z,9.07
2019-05-10T22:07:51.961Z,9.87
2019-05-10T22:10:21.106Z,8.90
2019-05-10T22:12:50.159Z,9.00
2019-05-10T22:15:19.266Z,9.83
2019-05-10T22:17:48.315Z,9.30
2019-05-10T22:20:17.372Z,9.87
2019-05-10T22:22:46.496Z,9.10
2019-05-10T22:25:15.531Z,9.57
2019-05-10T22:27:44.542Z,9.63
2019-05-10T22:30:13.823Z,10.63
2019-05-10T22:32:42.924Z,10.20
2019-05-10T22:35:12.106Z,11.30
2019-05-10T22:37:41.190Z,12.03
2019-05-10T22:40:10.287Z,11.83
2019-05-10T22:42:39.466Z,11.67
2019-05-10T22:45:08.528Z,12.30
2019-05-10T22:47:37.654Z,11.97
2019-05-10T22:50:06.790Z,12.90
2019-05-10T22:52:35.875Z,12.33
2019-05-10T22:55:06.520Z,13.60
2019-05-10T22:57:35.640Z,12.53
2019-05-10T23:00:05.404Z,13.03
2019-05-10T23:02:34.474Z,13.90
2019-05-10T23:05:03.782Z,12.50
2019-05-10T23:07:32.888Z,14.23
2019-05-10T23:10:01.975Z,14.33
2019-05-10T23:12:31.067Z,15.10
2019-05-10T23:15:00.044Z,14.77
2019-05-10T23:17:29.142Z,15.23
2019-05-10T23:19:58.250Z,14.87
2019-05-10T23:22:27.331Z,14.57
2019-05-10T23:24:56.474Z,14.47
2019-05-10T23:27:25.540Z,15.83
2019-05-10T23:29:54.661Z,15.93
2019-05-10T23:32:23.834Z,17.60
2019-05-10T23:34:52.887Z,15.47
2019-05-10T23:37:21.959Z,15.50
2019-05-10T23:39:50.953Z,15.73
2019-05-10T23:42:20.049Z,16.53
2019-05-10T23:44:49.158Z,17.63
2019-05-10T23:47:18.232Z,17.43
2019-05-10T23:49:47.216Z,17.63
2019-05-10T23:52:16.334Z,17.90
2019-05-10T23:54:45.399Z,19.10
2019-05-10T23:57:14.516Z,19.33
2019-05-10T23:59:43.579Z,19.10
